sensor_id;sensor_type;location;lat;lon;timestamp;pressure;altitude;pressure_sealevel;temperature;humidity
17764;BME280;22245;52.832;13.816;2024-02-14T00:00:42;101669.50;;;2.37;98.44
17764;BME280;22245;52.832;13.816;2024-02-14T00:04:04;101659.88;;;2.37;98.85
17764;BME280;22245;52.832;13.816;2024-02-14T00:07:29;101666.88;;;2.37;99.31
17764;BME280;22245;52.832;13.816;2024-02-14T00:10:50;101670.25;;;2.40;99.52
17764;BME280;22245;52.832;13.816;2024-02-14T00:14:11;101670.06;;;2.45;99.69
17764;BME280;22245;52.832;13.816;2024-02-14T00:17:33;101668.16;;;2.50;99.10
17764;BME280;22245;52.832;13.816;2024-02-14T00:20:55;101660.16;;;2.53;99.19
17764;BME280;22245;52.832;13.816;2024-02-14T00:24:18;101660.84;;;2.58;98.75
17764;BME280;22245;52.832;13.816;2024-02-14T00:27:40;101663.28;;;2.63;99.14
17764;BME280;22245;52.832;13.816;2024-02-14T00:31:02;101664.00;;;2.68;98.84
17764;BME280;22245;52.832;13.816;2024-02-14T00:34:23;101659.47;;;2.72;98.62
17764;BME280;22245;52.832;13.816;2024-02-14T00:37:45;101656.84;;;2.72;98.75
17764;BME280;22245;52.832;13.816;2024-02-14T00:41:10;101661.03;;;2.78;98.49
17764;BME280;22245;52.832;13.816;2024-02-14T00:44:31;101665.28;;;2.80;97.82
17764;BME280;22245;52.832;13.816;2024-02-14T00:47:53;101666.28;;;2.78;98.50
17764;BME280;22245;52.832;13.816;2024-02-14T00:51:15;101668.84;;;2.79;98.19
17764;BME280;22245;52.832;13.816;2024-02-14T00:54:36;101658.94;;;2.86;97.74
17764;BME280;22245;52.832;13.816;2024-02-14T00:57:59;101663.25;;;2.88;97.25
17764;BME280;22245;52.832;13.816;2024-02-14T01:01:21;101667.63;;;2.88;97.47
17764;BME280;22245;52.832;13.816;2024-02-14T01:04:42;101670.22;;;2.89;97.31
17764;BME280;22245;52.832;13.816;2024-02-14T01:08:04;101651.84;;;2.88;97.00
17764;BME280;22245;52.832;13.816;2024-02-14T01:11:27;101653.69;;;2.86;96.44
17764;BME280;22245;52.832;13.816;2024-02-14T01:14:50;101654.59;;;2.85;96.93
17764;BME280;22245;52.832;13.816;2024-02-14T01:18:12;101646.84;;;2.82;96.31
17764;BME280;22245;52.832;13.816;2024-02-14T01:21:34;101651.41;;;2.77;96.02
17764;BME280;22245;52.832;13.816;2024-02-14T01:24:55;101649.03;;;2.70;96.49
17764;BME280;22245;52.832;13.816;2024-02-14T01:28:18;101653.59;;;2.65;95.81
17764;BME280;22245;52.832;13.816;2024-02-14T01:31:41;101647.75;;;2.57;95.78
17764;BME280;22245;52.832;13.816;2024-02-14T01:35:02;101651.41;;;2.53;95.16
17764;BME280;22245;52.832;13.816;2024-02-14T01:38:24;101652.59;;;2.44;95.04
17764;BME280;22245;52.832;13.816;2024-02-14T01:41:45;101645.84;;;2.37;95.42
17764;BME280;22245;52.832;13.816;2024-02-14T01:45:08;101644.34;;;2.29;95.67
17764;BME280;22245;52.832;13.816;2024-02-14T01:48:31;101641.06;;;2.23;95.40
17764;BME280;22245;52.832;13.816;2024-02-14T01:51:55;101628.16;;;2.16;95.87
17764;BME280;22245;52.832;13.816;2024-02-14T01:55:21;101619.59;;;2.11;96.18
17764;BME280;22245;52.832;13.816;2024-02-14T01:58:43;101627.59;;;2.08;96.01
17764;BME280;22245;52.832;13.816;2024-02-14T02:02:05;101626.78;;;2.06;96.27
17764;BME280;22245;52.832;13.816;2024-02-14T02:05:30;101632.94;;;2.05;96.74
17764;BME280;22245;52.832;13.816;2024-02-14T02:08:51;101619.81;;;2.05;96.63
17764;BME280;22245;52.832;13.816;2024-02-14T02:12:13;101616.38;;;2.03;96.67
17764;BME280;22245;52.832;13.816;2024-02-14T02:15:35;101613.06;;;1.98;97.00
17764;BME280;22245;52.832;13.816;2024-02-14T02:18:57;101614.94;;;1.94;97.49
17764;BME280;22245;52.832;13.816;2024-02-14T02:22:20;101619.97;;;2.00;97.77
17764;BME280;22245;52.832;13.816;2024-02-14T02:25:43;101608.53;;;2.01;97.94
17764;BME280;22245;52.832;13.816;2024-02-14T02:29:05;101618.81;;;2.08;97.34
17764;BME280;22245;52.832;13.816;2024-02-14T02:32:26;101618.78;;;2.09;97.19
17764;BME280;22245;52.832;13.816;2024-02-14T02:35:48;101622.06;;;2.16;96.55
17764;BME280;22245;52.832;13.816;2024-02-14T02:39:11;101622.00;;;2.17;96.24
17764;BME280;22245;52.832;13.816;2024-02-14T02:42:36;101608.91;;;2.16;95.94
17764;BME280;22245;52.832;13.816;2024-02-14T02:45:57;101609.66;;;2.20;95.99
17764;BME280;22245;52.832;13.816;2024-02-14T02:49:19;101612.25;;;2.21;97.22
17764;BME280;22245;52.832;13.816;2024-02-14T02:52:41;101615.44;;;2.29;97.14
17764;BME280;22245;52.832;13.816;2024-02-14T02:56:03;101616.19;;;2.33;96.87
17764;BME280;22245;52.832;13.816;2024-02-14T02:59:27;101611.63;;;2.38;96.17
17764;BME280;22245;52.832;13.816;2024-02-14T03:02:50;101619.44;;;2.40;95.51
17764;BME280;22245;52.832;13.816;2024-02-14T03:06:12;101615.97;;;2.39;95.36
17764;BME280;22245;52.832;13.816;2024-02-14T03:09:33;101601.94;;;2.39;94.55
17764;BME280;22245;52.832;13.816;2024-02-14T03:12:55;101594.13;;;2.37;94.58
17764;BME280;22245;52.832;13.816;2024-02-14T03:16:17;101596.81;;;2.36;94.51
17764;BME280;22245;52.832;13.816;2024-02-14T03:19:40;101596.09;;;2.32;94.71
17764;BME280;22245;52.832;13.816;2024-02-14T03:23:01;101590.88;;;2.30;94.14
17764;BME280;22245;52.832;13.816;2024-02-14T03:26:23;101594.41;;;2.29;94.43
17764;BME280;22245;52.832;13.816;2024-02-14T03:29:46;101596.28;;;2.26;94.03
17764;BME280;22245;52.832;13.816;2024-02-14T03:33:10;101585.03;;;2.22;93.66
17764;BME280;22245;52.832;13.816;2024-02-14T03:36:31;101586.88;;;2.20;93.99
17764;BME280;22245;52.832;13.816;2024-02-14T03:39:53;101578.28;;;2.15;93.65
17764;BME280;22245;52.832;13.816;2024-02-14T03:43:14;101581.94;;;2.11;93.64
17764;BME280;22245;52.832;13.816;2024-02-14T03:46:36;101571.53;;;2.08;94.21
17764;BME280;22245;52.832;13.816;2024-02-14T03:49:58;101577.66;;;2.08;94.42
17764;BME280;22245;52.832;13.816;2024-02-14T03:53:20;101569.78;;;2.08;95.16
17764;BME280;22245;52.832;13.816;2024-02-14T03:56:41;101568.81;;;2.11;95.14
17764;BME280;22245;52.832;13.816;2024-02-14T04:00:03;101563.59;;;2.09;95.15
17764;BME280;22245;52.832;13.816;2024-02-14T04:03:32;101559.25;;;2.08;94.68
17764;BME280;22245;52.832;13.816;2024-02-14T04:06:55;101564.50;;;2.08;94.78
17764;BME280;22245;52.832;13.816;2024-02-14T04:10:18;101570.69;;;2.07;95.12
17764;BME280;22245;52.832;13.816;2024-02-14T04:13:40;101558.38;;;2.08;95.47
17764;BME280;22245;52.832;13.816;2024-02-14T04:17:01;101557.53;;;2.07;95.40
17764;BME280;22245;52.832;13.816;2024-02-14T04:20:23;101557.53;;;2.07;95.25
17764;BME280;22245;52.832;13.816;2024-02-14T04:23:46;101562.91;;;2.04;95.25
17764;BME280;22245;52.832;13.816;2024-02-14T04:27:07;101562.13;;;2.02;95.62
17764;BME280;22245;52.832;13.816;2024-02-14T04:30:29;101568.31;;;1.99;95.60
17764;BME280;22245;52.832;13.816;2024-02-14T04:33:50;101565.78;;;1.98;96.07
17764;BME280;22245;52.832;13.816;2024-02-14T04:37:13;101559.75;;;1.94;96.00
17764;BME280;22245;52.832;13.816;2024-02-14T04:40:36;101556.16;;;1.97;95.96
17764;BME280;22245;52.832;13.816;2024-02-14T04:43:58;101562.22;;;1.99;96.11
17764;BME280;22245;52.832;13.816;2024-02-14T04:47:19;101544.75;;;1.98;96.47
17764;BME280;22245;52.832;13.816;2024-02-14T04:50:41;101542.06;;;1.99;96.08
17764;BME280;22245;52.832;13.816;2024-02-14T04:54:02;101536.78;;;1.99;96.44
17764;BME280;22245;52.832;13.816;2024-02-14T04:57:27;101537.59;;;2.01;96.59
17764;BME280;22245;52.832;13.816;2024-02-14T05:00:49;101542.69;;;2.06;97.00
17764;BME280;22245;52.832;13.816;2024-02-14T05:04:10;101542.69;;;2.06;97.00
17764;BME280;22245;52.832;13.816;2024-02-14T05:07:33;101554.97;;;2.06;97.28
17764;BME280;22245;52.832;13.816;2024-02-14T05:10:54;101564.66;;;2.03;97.55
17764;BME280;22245;52.832;13.816;2024-02-14T05:14:17;101564.56;;;2.07;97.61
17764;BME280;22245;52.832;13.816;2024-02-14T05:17:42;101557.53;;;2.07;97.72
17764;BME280;22245;52.832;13.816;2024-02-14T05:21:05;101558.31;;;2.11;98.14
17764;BME280;22245;52.832;13.816;2024-02-14T05:24:27;101547.78;;;2.11;98.12
17764;BME280;22245;52.832;13.816;2024-02-14T05:27:49;101548.53;;;2.14;98.34
17764;BME280;22245;52.832;13.816;2024-02-14T05:31:12;101547.50;;;2.19;98.57
17764;BME280;22245;52.832;13.816;2024-02-14T05:34:34;101540.41;;;2.21;98.06
17764;BME280;22245;52.832;13.816;2024-02-14T05:37:56;101539.38;;;2.25;98.07
17764;BME280;22245;52.832;13.816;2024-02-14T05:41:17;101533.13;;;2.29;97.88
17764;BME280;22245;52.832;13.816;2024-02-14T05:44:38;101536.59;;;2.29;97.71
17764;BME280;22245;52.832;13.816;2024-02-14T05:48:02;101520.75;;;2.31;97.42
17764;BME280;22245;52.832;13.816;2024-02-14T05:51:25;101524.19;;;2.33;97.56
17764;BME280;22245;52.832;13.816;2024-02-14T05:54:46;101517.94;;;2.36;97.72
17764;BME280;22245;52.832;13.816;2024-02-14T05:58:08;101525.78;;;2.37;98.08
17764;BME280;22245;52.832;13.816;2024-02-14T06:01:30;101517.78;;;2.40;98.04
17764;BME280;22245;52.832;13.816;2024-02-14T06:04:53;101522.97;;;2.42;98.07
17764;BME280;22245;52.832;13.816;2024-02-14T06:08:15;101514.16;;;2.43;97.94
17764;BME280;22245;52.832;13.816;2024-02-14T06:11:37;101510.59;;;2.44;98.24
17764;BME280;22245;52.832;13.816;2024-02-14T06:15:00;101507.94;;;2.45;98.55
17764;BME280;22245;52.832;13.816;2024-02-14T06:18:21;101511.34;;;2.48;98.34
17764;BME280;22245;52.832;13.816;2024-02-14T06:21:45;101511.25;;;2.51;99.10
17764;BME280;22245;52.832;13.816;2024-02-14T06:25:07;101510.41;;;2.50;98.55
17764;BME280;22245;52.832;13.816;2024-02-14T06:28:29;101505.03;;;2.53;98.85
17764;BME280;22245;52.832;13.816;2024-02-14T06:31:50;101504.81;;;2.58;99.40
17764;BME280;22245;52.832;13.816;2024-02-14T06:35:11;101507.31;;;2.61;99.30
17764;BME280;22245;52.832;13.816;2024-02-14T06:38:37;101496.69;;;2.64;99.31
17764;BME280;22245;52.832;13.816;2024-02-14T06:41:58;101495.72;;;2.67;99.32
17764;BME280;22245;52.832;13.816;2024-02-14T06:45:20;101504.34;;;2.70;99.65
17764;BME280;22245;52.832;13.816;2024-02-14T06:48:41;101503.34;;;2.73;100.00
17764;BME280;22245;52.832;13.816;2024-02-14T06:52:04;101498.72;;;2.80;100.00
17764;BME280;22245;52.832;13.816;2024-02-14T06:55:27;101502.00;;;2.85;100.00
17764;BME280;22245;52.832;13.816;2024-02-14T06:58:49;101489.50;;;2.90;100.00
17764;BME280;22245;52.832;13.816;2024-02-14T07:02:13;101485.84;;;2.94;100.00
17764;BME280;22245;52.832;13.816;2024-02-14T07:05:35;101495.31;;;2.98;100.00
17764;BME280;22245;52.832;13.816;2024-02-14T07:08:57;101493.44;;;3.02;100.00
17764;BME280;22245;52.832;13.816;2024-02-14T07:12:19;101486.28;;;3.06;100.00
17764;BME280;22245;52.832;13.816;2024-02-14T07:15:41;101480.88;;;3.09;100.00
17764;BME280;22245;52.832;13.816;2024-02-14T07:19:03;101482.63;;;3.08;100.00
17764;BME280;22245;52.832;13.816;2024-02-14T07:22:25;101481.09;;;3.02;99.74
17764;BME280;22245;52.832;13.816;2024-02-14T07:25:47;101489.91;;;3.01;99.29
17764;BME280;22245;52.832;13.816;2024-02-14T07:29:09;101505.72;;;3.01;100.00
17764;BME280;22245;52.832;13.816;2024-02-14T07:32:30;101501.38;;;3.00;99.86
17764;BME280;22245;52.832;13.816;2024-02-14T07:35:52;101498.75;;;3.00;99.90
17764;BME280;22245;52.832;13.816;2024-02-14T07:39:13;101482.91;;;3.02;100.00
17764;BME280;22245;52.832;13.816;2024-02-14T07:42:35;101477.44;;;3.07;100.00
17764;BME280;22245;52.832;13.816;2024-02-14T07:45:59;101476.41;;;3.11;100.00
17764;BME280;22245;52.832;13.816;2024-02-14T07:49:20;101474.34;;;3.17;100.00
17764;BME280;22245;52.832;13.816;2024-02-14T07:52:41;101482.84;;;3.24;100.00
17764;BME280;22245;52.832;13.816;2024-02-14T07:56:04;101473.84;;;3.30;100.00
17764;BME280;22245;52.832;13.816;2024-02-14T07:59:26;101484.16;;;3.35;100.00
17764;BME280;22245;52.832;13.816;2024-02-14T08:02:52;101489.25;;;3.39;100.00
17764;BME280;22245;52.832;13.816;2024-02-14T08:06:14;101488.19;;;3.43;100.00
17764;BME280;22245;52.832;13.816;2024-02-14T08:09:36;101491.56;;;3.47;100.00
17764;BME280;22245;52.832;13.816;2024-02-14T08:12:59;101494.09;;;3.48;100.00
17764;BME280;22245;52.832;13.816;2024-02-14T08:16:20;101488.78;;;3.50;99.92
17764;BME280;22245;52.832;13.816;2024-02-14T08:19:43;101486.84;;;3.54;100.00
17764;BME280;22245;52.832;13.816;2024-02-14T08:23:04;101490.22;;;3.57;100.00
17764;BME280;22245;52.832;13.816;2024-02-14T08:26:26;101483.06;;;3.61;100.00
17764;BME280;22245;52.832;13.816;2024-02-14T08:29:48;101476.78;;;3.64;100.00
17764;BME280;22245;52.832;13.816;2024-02-14T08:33:10;101471.31;;;3.68;100.00
17764;BME280;22245;52.832;13.816;2024-02-14T08:36:34;101469.25;;;3.75;100.00
17764;BME280;22245;52.832;13.816;2024-02-14T08:40:00;101457.66;;;3.79;100.00
17764;BME280;22245;52.832;13.816;2024-02-14T08:43:22;101456.44;;;3.86;100.00
17764;BME280;22245;52.832;13.816;2024-02-14T08:46:45;101455.38;;;3.90;100.00
17764;BME280;22245;52.832;13.816;2024-02-14T08:50:09;101458.66;;;3.96;100.00
17764;BME280;22245;52.832;13.816;2024-02-14T08:53:32;101458.47;;;4.00;100.00
17764;BME280;22245;52.832;13.816;2024-02-14T08:56:53;101454.66;;;4.06;100.00
17764;BME280;22245;52.832;13.816;2024-02-14T09:00:19;101461.34;;;4.13;100.00
17764;BME280;22245;52.832;13.816;2024-02-14T09:03:42;101449.63;;;4.20;100.00
17764;BME280;22245;52.832;13.816;2024-02-14T09:07:10;101444.75;;;4.30;100.00
17764;BME280;22245;52.832;13.816;2024-02-14T09:10:33;101449.66;;;4.38;100.00
17764;BME280;22245;52.832;13.816;2024-02-14T09:13:54;101447.34;;;4.49;99.28
17764;BME280;22245;52.832;13.816;2024-02-14T09:17:22;101445.75;;;4.64;98.21
17764;BME280;22245;52.832;13.816;2024-02-14T09:20:44;101437.31;;;4.75;97.28
17764;BME280;22245;52.832;13.816;2024-02-14T09:24:06;101429.72;;;4.87;96.85
17764;BME280;22245;52.832;13.816;2024-02-14T09:27:30;101435.31;;;4.98;95.89
17764;BME280;22245;52.832;13.816;2024-02-14T09:30:51;101440.97;;;5.08;95.09
17764;BME280;22245;52.832;13.816;2024-02-14T09:34:12;101445.72;;;5.19;94.00
17764;BME280;22245;52.832;13.816;2024-02-14T09:37:35;101441.13;;;5.22;93.70
17764;BME280;22245;52.832;13.816;2024-02-14T09:41:04;101433.66;;;5.31;93.23
17764;BME280;22245;52.832;13.816;2024-02-14T09:44:28;101434.09;;;5.39;93.03
17764;BME280;22245;52.832;13.816;2024-02-14T09:47:51;101439.78;;;5.49;93.03
17764;BME280;22245;52.832;13.816;2024-02-14T09:51:13;101436.63;;;5.58;92.55
17764;BME280;22245;52.832;13.816;2024-02-14T09:54:36;101443.41;;;5.64;93.56
17764;BME280;22245;52.832;13.816;2024-02-14T09:58:00;101438.09;;;5.64;94.61
17764;BME280;22245;52.832;13.816;2024-02-14T10:01:26;101444.88;;;5.70;95.37
17764;BME280;22245;52.832;13.816;2024-02-14T10:04:48;101448.00;;;5.76;95.94
17764;BME280;22245;52.832;13.816;2024-02-14T10:08:10;101437.97;;;5.83;96.42
17764;BME280;22245;52.832;13.816;2024-02-14T10:11:32;101433.22;;;5.90;96.71
17764;BME280;22245;52.832;13.816;2024-02-14T10:14:55;101434.47;;;5.99;96.86
17764;BME280;22245;52.832;13.816;2024-02-14T10:18:18;101433.41;;;6.03;97.62
17764;BME280;22245;52.832;13.816;2024-02-14T10:21:40;101434.03;;;6.08;98.01
17764;BME280;22245;52.832;13.816;2024-02-14T10:25:05;101427.34;;;6.17;97.51
17764;BME280;22245;52.832;13.816;2024-02-14T10:28:29;101416.34;;;6.25;97.39
17764;BME280;22245;52.832;13.816;2024-02-14T10:32:02;101420.72;;;6.26;97.03
17764;BME280;22245;52.832;13.816;2024-02-14T10:35:25;101415.16;;;6.30;97.44
17764;BME280;22245;52.832;13.816;2024-02-14T10:38:50;101414.81;;;6.36;97.32
17764;BME280;22245;52.832;13.816;2024-02-14T10:42:13;101415.31;;;6.43;97.70
17764;BME280;22245;52.832;13.816;2024-02-14T10:45:35;101406.09;;;6.50;97.47
17764;BME280;22245;52.832;13.816;2024-02-14T10:48:58;101409.31;;;6.56;96.55
17764;BME280;22245;52.832;13.816;2024-02-14T10:52:25;101415.28;;;6.59;96.41
17764;BME280;22245;52.832;13.816;2024-02-14T10:55:51;101402.38;;;6.69;95.86
17764;BME280;22245;52.832;13.816;2024-02-14T10:59:16;101408.53;;;6.70;96.43
17764;BME280;22245;52.832;13.816;2024-02-14T11:02:38;101403.59;;;6.63;95.26
17764;BME280;22245;52.832;13.816;2024-02-14T11:06:01;101396.50;;;6.64;95.56
17764;BME280;22245;52.832;13.816;2024-02-14T11:09:32;101391.88;;;6.68;95.57
17764;BME280;22245;52.832;13.816;2024-02-14T11:12:57;101395.94;;;6.73;95.86
17764;BME280;22245;52.832;13.816;2024-02-14T11:16:28;101385.84;;;6.80;95.74
17764;BME280;22245;52.832;13.816;2024-02-14T11:19:50;101396.19;;;6.85;95.86
17764;BME280;22245;52.832;13.816;2024-02-14T11:23:12;101386.25;;;6.88;95.59
17764;BME280;22245;52.832;13.816;2024-02-14T11:26:39;101383.16;;;6.96;95.06
17764;BME280;22245;52.832;13.816;2024-02-14T11:30:00;101385.25;;;7.05;95.17
17764;BME280;22245;52.832;13.816;2024-02-14T11:33:24;101388.75;;;7.06;95.17
17764;BME280;22245;52.832;13.816;2024-02-14T11:36:46;101384.03;;;7.11;95.58
17764;BME280;22245;52.832;13.816;2024-02-14T11:40:08;101383.53;;;7.19;95.79
17764;BME280;22245;52.832;13.816;2024-02-14T11:43:31;101384.16;;;7.24;96.09
17764;BME280;22245;52.832;13.816;2024-02-14T11:46:53;101386.50;;;7.29;96.28
17764;BME280;22245;52.832;13.816;2024-02-14T11:50:17;101380.25;;;7.30;96.10
17764;BME280;22245;52.832;13.816;2024-02-14T11:53:39;101369.66;;;7.30;97.42
17764;BME280;22245;52.832;13.816;2024-02-14T11:57:01;101365.78;;;7.35;98.87
17764;BME280;22245;52.832;13.816;2024-02-14T12:00:24;101374.22;;;7.42;99.45
17764;BME280;22245;52.832;13.816;2024-02-14T12:03:46;101369.47;;;7.47;99.87
17764;BME280;22245;52.832;13.816;2024-02-14T12:07:08;101372.56;;;7.54;100.00
17764;BME280;22245;52.832;13.816;2024-02-14T12:10:31;101367.28;;;7.54;100.00
17764;BME280;22245;52.832;13.816;2024-02-14T12:13:52;101373.34;;;7.56;100.00
17764;BME280;22245;52.832;13.816;2024-02-14T12:17:15;101377.53;;;7.60;100.00
17764;BME280;22245;52.832;13.816;2024-02-14T12:20:39;101376.75;;;7.58;100.00
17764;BME280;22245;52.832;13.816;2024-02-14T12:24:01;101370.41;;;7.61;100.00
17764;BME280;22245;52.832;13.816;2024-02-14T12:27:24;101366.72;;;7.63;100.00
17764;BME280;22245;52.832;13.816;2024-02-14T12:30:47;101372.78;;;7.65;100.00
17764;BME280;22245;52.832;13.816;2024-02-14T12:34:11;101369.19;;;7.66;100.00
17764;BME280;22245;52.832;13.816;2024-02-14T12:37:34;101368.88;;;7.71;100.00
17764;BME280;22245;52.832;13.816;2024-02-14T12:40:55;101372.59;;;7.68;100.00
17764;BME280;22245;52.832;13.816;2024-02-14T12:44:17;101370.47;;;7.74;100.00
17764;BME280;22245;52.832;13.816;2024-02-14T12:47:39;101370.47;;;7.74;100.00
17764;BME280;22245;52.832;13.816;2024-02-14T12:51:05;101374.72;;;7.76;100.00
17764;BME280;22245;52.832;13.816;2024-02-14T12:54:27;101363.09;;;7.79;100.00
17764;BME280;22245;52.832;13.816;2024-02-14T12:57:49;101369.25;;;7.79;100.00
17764;BME280;22245;52.832;13.816;2024-02-14T13:01:10;101365.66;;;7.80;100.00
17764;BME280;22245;52.832;13.816;2024-02-14T13:04:32;101362.69;;;7.85;100.00
17764;BME280;22245;52.832;13.816;2024-02-14T13:07:56;101368.94;;;7.84;100.00
17764;BME280;22245;52.832;13.816;2024-02-14T13:11:17;101364.41;;;7.86;100.00
17764;BME280;22245;52.832;13.816;2024-02-14T13:14:39;101363.63;;;7.84;100.00
17764;BME280;22245;52.832;13.816;2024-02-14T13:18:01;101371.41;;;7.87;100.00
17764;BME280;22245;52.832;13.816;2024-02-14T13:21:24;101372.06;;;7.91;100.00
17764;BME280;22245;52.832;13.816;2024-02-14T13:24:46;101379.75;;;7.95;100.00
17764;BME280;22245;52.832;13.816;2024-02-14T13:28:08;101366.28;;;7.99;100.00
17764;BME280;22245;52.832;13.816;2024-02-14T13:31:29;101372.22;;;8.02;100.00
17764;BME280;22245;52.832;13.816;2024-02-14T13:34:51;101376.56;;;8.03;100.00
17764;BME280;22245;52.832;13.816;2024-02-14T13:38:13;101371.47;;;8.00;100.00
17764;BME280;22245;52.832;13.816;2024-02-14T13:41:36;101373.47;;;7.96;100.00
17764;BME280;22245;52.832;13.816;2024-02-14T13:44:58;101370.44;;;8.03;100.00
17764;BME280;22245;52.832;13.816;2024-02-14T13:48:20;101370.31;;;8.04;100.00
17764;BME280;22245;52.832;13.816;2024-02-14T13:51:42;101374.59;;;8.07;100.00
17764;BME280;22245;52.832;13.816;2024-02-14T13:55:04;101370.44;;;8.03;100.00
17764;BME280;22245;52.832;13.816;2024-02-14T13:58:29;101374.59;;;8.07;100.00
17764;BME280;22245;52.832;13.816;2024-02-14T14:01:50;101378.19;;;8.06;100.00
17764;BME280;22245;52.832;13.816;2024-02-14T14:05:12;101379.16;;;8.05;100.00
17764;BME280;22245;52.832;13.816;2024-02-14T14:08:37;101371.81;;;8.08;100.00
17764;BME280;22245;52.832;13.816;2024-02-14T14:11:59;101379.16;;;8.05;100.00
17764;BME280;22245;52.832;13.816;2024-02-14T14:15:22;101378.75;;;8.11;100.00
17764;BME280;22245;52.832;13.816;2024-02-14T14:18:44;101375.59;;;8.19;100.00
17764;BME280;22245;52.832;13.816;2024-02-14T14:22:06;101372.84;;;8.20;100.00
17764;BME280;22245;52.832;13.816;2024-02-14T14:25:29;101379.63;;;8.24;100.00
17764;BME280;22245;52.832;13.816;2024-02-14T14:28:51;101390.03;;;8.28;100.00
17764;BME280;22245;52.832;13.816;2024-02-14T14:32:16;101387.41;;;8.28;100.00
17764;BME280;22245;52.832;13.816;2024-02-14T14:35:37;101381.72;;;8.34;100.00
17764;BME280;22245;52.832;13.816;2024-02-14T14:38:59;101381.00;;;8.17;100.00
17764;BME280;22245;52.832;13.816;2024-02-14T14:42:21;101379.22;;;8.18;100.00
17764;BME280;22245;52.832;13.816;2024-02-14T14:45:42;101390.91;;;8.28;100.00
17764;BME280;22245;52.832;13.816;2024-02-14T14:49:08;101385.91;;;8.23;100.00
17764;BME280;22245;52.832;13.816;2024-02-14T14:52:30;101389.69;;;8.34;100.00
17764;BME280;22245;52.832;13.816;2024-02-14T14:55:54;101389.09;;;8.29;100.00
17764;BME280;22245;52.832;13.816;2024-02-14T14:59:16;101385.25;;;8.20;100.00
17764;BME280;22245;52.832;13.816;2024-02-14T15:02:39;101391.38;;;8.35;100.00
17764;BME280;22245;52.832;13.816;2024-02-14T15:06:03;101390.84;;;8.43;100.00
17764;BME280;22245;52.832;13.816;2024-02-14T15:09:24;101385.66;;;8.41;100.00
17764;BME280;22245;52.832;13.816;2024-02-14T15:12:49;101381.84;;;8.45;100.00
17764;BME280;22245;52.832;13.816;2024-02-14T15:16:12;101385.00;;;8.37;100.00
17764;BME280;22245;52.832;13.816;2024-02-14T15:19:33;101388.41;;;8.39;100.00
17764;BME280;22245;52.832;13.816;2024-02-14T15:22:56;101389.69;;;8.47;100.00
17764;BME280;22245;52.832;13.816;2024-02-14T15:26:24;101393.50;;;8.57;100.00
17764;BME280;22245;52.832;13.816;2024-02-14T15:29:45;101399.63;;;8.58;100.00
17764;BME280;22245;52.832;13.816;2024-02-14T15:33:24;101400.59;;;8.57;100.00
17764;BME280;22245;52.832;13.816;2024-02-14T15:36:46;101391.47;;;8.61;100.00
17764;BME280;22245;52.832;13.816;2024-02-14T15:40:11;101398.69;;;8.59;100.00
17764;BME280;22245;52.832;13.816;2024-02-14T15:43:33;101399.97;;;8.66;100.00
17764;BME280;22245;52.832;13.816;2024-02-14T15:46:54;101397.22;;;8.67;100.00
17764;BME280;22245;52.832;13.816;2024-02-14T15:50:16;101400.72;;;8.68;100.00
17764;BME280;22245;52.832;13.816;2024-02-14T15:53:37;101406.47;;;8.75;100.00
17764;BME280;22245;52.832;13.816;2024-02-14T15:57:01;101406.59;;;8.73;100.00
17764;BME280;22245;52.832;13.816;2024-02-14T16:00:23;101405.41;;;8.64;100.00
17764;BME280;22245;52.832;13.816;2024-02-14T16:03:45;101407.66;;;8.71;100.00
17764;BME280;22245;52.832;13.816;2024-02-14T16:07:08;101412.09;;;8.70;100.00
17764;BME280;22245;52.832;13.816;2024-02-14T16:10:29;101413.41;;;8.77;100.00
17764;BME280;22245;52.832;13.816;2024-02-14T16:13:51;101421.25;;;8.79;100.00
17764;BME280;22245;52.832;13.816;2024-02-14T16:17:14;101415.31;;;8.75;100.00
17764;BME280;22245;52.832;13.816;2024-02-14T16:20:35;101417.41;;;8.70;100.00
17764;BME280;22245;52.832;13.816;2024-02-14T16:23:57;101418.06;;;8.74;100.00
17764;BME280;22245;52.832;13.816;2024-02-14T16:27:20;101422.88;;;8.81;100.00
17764;BME280;22245;52.832;13.816;2024-02-14T16:30:43;101420.22;;;8.81;100.00
17764;BME280;22245;52.832;13.816;2024-02-14T16:34:05;101414.25;;;8.78;100.00
17764;BME280;22245;52.832;13.816;2024-02-14T16:37:29;101418.31;;;8.83;100.00
17764;BME280;22245;52.832;13.816;2024-02-14T16:40:57;101424.03;;;8.77;100.00
17764;BME280;22245;52.832;13.816;2024-02-14T16:45:25;101429.56;;;8.87;100.00
17764;BME280;22245;52.832;13.816;2024-02-14T16:48:51;101434.38;;;8.95;100.00
17764;BME280;22245;52.832;13.816;2024-02-14T16:52:13;101437.97;;;8.94;100.00
17764;BME280;22245;52.832;13.816;2024-02-14T16:55:34;101439.69;;;8.95;100.00
17764;BME280;22245;52.832;13.816;2024-02-14T16:58:56;101437.03;;;8.95;100.00
17764;BME280;22245;52.832;13.816;2024-02-14T17:02:18;101438.31;;;9.02;100.00
17764;BME280;22245;52.832;13.816;2024-02-14T17:05:40;101439.38;;;9.00;100.00
17764;BME280;22245;52.832;13.816;2024-02-14T17:09:03;101445.97;;;9.07;100.00
17764;BME280;22245;52.832;13.816;2024-02-14T17:12:25;101439.41;;;9.12;100.00
17764;BME280;22245;52.832;13.816;2024-02-14T17:15:47;101440.16;;;9.15;100.00
17764;BME280;22245;52.832;13.816;2024-02-14T17:19:09;101444.28;;;9.19;100.00
17764;BME280;22245;52.832;13.816;2024-02-14T17:22:32;101440.97;;;9.02;100.00
17764;BME280;22245;52.832;13.816;2024-02-14T17:25:54;101444.94;;;9.09;100.00
17764;BME280;22245;52.832;13.816;2024-02-14T17:29:17;101442.81;;;9.15;100.00
17764;BME280;22245;52.832;13.816;2024-02-14T17:32:38;101445.56;;;9.13;100.00